createdAt,value
2023-02-14T00:01:30.048Z,100.00
2023-02-14T00:04:01.617Z,100.00
2023-02-14T00:06:35.371Z,100.00
2023-02-14T00:09:06.520Z,100.00
2023-02-14T00:11:37.176Z,100.00
2023-02-14T00:14:26.135Z,100.00
2023-02-14T00:16:56.817Z,100.00
2023-02-14T00:19:27.397Z,100.00
2023-02-14T00:21:58.175Z,100.00
2023-02-14T00:24:31.654Z,100.00
2023-02-14T00:27:02.611Z,100.00
2023-02-14T00:29:36.812Z,100.00
2023-02-14T00:32:09.707Z,100.00
2023-02-14T00:34:44.391Z,100.00
2023-02-14T00:37:15.087Z,100.00
2023-02-14T00:39:45.605Z,100.00
2023-02-14T00:42:16.407Z,100.00
2023-02-14T00:44:49.311Z,100.00
2023-02-14T00:47:20.389Z,100.00
2023-02-14T00:49:49.540Z,100.00
2023-02-14T00:52:40.229Z,100.00
2023-02-14T00:55:30.800Z,100.00
2023-02-14T00:58:04.088Z,100.00
2023-02-14T01:00:34.739Z,100.00
2023-02-14T01:03:14.512Z,100.00
2023-02-14T01:05:45.392Z,100.00
2023-02-14T01:08:20.038Z,100.00
2023-02-14T01:10:59.462Z,100.00
2023-02-14T01:13:30.616Z,100.00
2023-02-14T01:16:06.442Z,100.00
2023-02-14T01:18:40.778Z,100.00
2023-02-14T01:21:30.784Z,100.00
2023-02-14T01:24:13.562Z,100.00
2023-02-14T01:26:46.822Z,100.00
2023-02-14T01:29:17.528Z,100.00
2023-02-14T01:32:08.384Z,100.00
2023-02-14T01:34:39.122Z,100.00
2023-02-14T01:37:18.987Z,100.00
2023-02-14T01:39:49.686Z,100.00
2023-02-14T01:42:23.552Z,100.00
2023-02-14T01:45:19.537Z,100.00
2023-02-14T01:47:54.390Z,100.00
2023-02-14T01:50:39.384Z,100.00
2023-02-14T01:53:17.828Z,100.00
2023-02-14T01:55:58.304Z,100.00
2023-02-14T01:58:35.039Z,100.00
2023-02-14T02:01:26.467Z,100.00
2023-02-14T02:04:03.940Z,100.00
2023-02-14T02:06:52.834Z,100.00
2023-02-14T02:09:32.358Z,100.00
2023-02-14T02:12:06.239Z,100.00
2023-02-14T02:14:37.948Z,100.00
2023-02-14T02:17:27.625Z,100.00
2023-02-14T02:20:40.304Z,100.00
2023-02-14T02:23:37.433Z,100.00
2023-02-14T02:26:34.727Z,100.00
2023-02-14T02:29:34.620Z,100.00
2023-02-14T02:32:40.632Z,100.00
2023-02-14T02:35:36.468Z,100.00
2023-02-14T02:38:21.299Z,100.00
2023-02-14T02:41:05.253Z,100.00
2023-02-14T02:43:54.959Z,100.00
2023-02-14T02:46:49.787Z,100.00
2023-02-14T02:50:00.133Z,100.00
2023-02-14T02:52:58.290Z,100.00
2023-02-14T02:56:00.931Z,100.00
2023-02-14T02:58:37.104Z,100.00
2023-02-14T03:01:13.632Z,100.00
2023-02-14T03:04:07.203Z,100.00
2023-02-14T03:06:40.574Z,100.00
2023-02-14T03:09:41.624Z,100.00
2023-02-14T03:12:39.131Z,100.00
2023-02-14T03:15:21.838Z,100.00
2023-02-14T03:18:25.327Z,100.00
2023-02-14T03:21:02.025Z,100.00
2023-02-14T03:23:59.159Z,100.00
2023-02-14T03:26:54.000Z,100.00
2023-02-14T03:29:52.471Z,100.00
2023-02-14T03:32:40.363Z,100.00
2023-02-14T03:35:25.198Z,100.00
2023-02-14T03:38:02.015Z,100.00
2023-02-14T03:40:41.403Z,100.00
2023-02-14T03:43:19.800Z,100.00
2023-02-14T03:46:09.878Z,100.00
2023-02-14T03:48:46.166Z,100.00
2023-02-14T03:51:18.922Z,100.00
2023-02-14T03:54:14.862Z,100.00
2023-02-14T03:56:51.235Z,100.00
2023-02-14T03:59:32.521Z,100.00
2023-02-14T04:02:19.900Z,100.00
2023-02-14T04:04:54.787Z,100.00
2023-02-14T04:07:28.303Z,100.00
2023-02-14T04:10:01.960Z,100.00
2023-02-14T04:12:37.984Z,100.00
2023-02-14T04:15:29.368Z,100.00
2023-02-14T04:18:17.642Z,100.00
2023-02-14T04:21:08.733Z,100.00
2023-02-14T04:23:39.275Z,100.00
2023-02-14T04:26:12.925Z,100.00
2023-02-14T04:28:46.316Z,100.00
2023-02-14T04:31:29.815Z,100.00
2023-02-14T04:34:00.503Z,100.00
2023-02-14T04:36:31.124Z,100.00
2023-02-14T04:39:01.762Z,100.00
2023-02-14T04:41:44.961Z,100.00
2023-02-14T04:44:18.810Z,100.00
2023-02-14T04:46:53.022Z,100.00
2023-02-14T04:49:22.342Z,100.00
2023-02-14T04:51:52.926Z,100.00
2023-02-14T04:54:44.079Z,100.00
2023-02-14T04:57:35.253Z,100.00
2023-02-14T05:00:07.971Z,100.00
2023-02-14T05:02:39.447Z,100.00
2023-02-14T05:05:12.407Z,100.00
2023-02-14T05:08:03.136Z,100.00
2023-02-14T05:10:44.922Z,100.00
2023-02-14T05:13:23.416Z,100.00
2023-02-14T05:16:04.104Z,100.00
2023-02-14T05:18:54.844Z,100.00
2023-02-14T05:21:28.794Z,100.00
2023-02-14T05:24:02.141Z,100.00
2023-02-14T05:26:33.317Z,100.00
2023-02-14T05:29:02.474Z,100.00
2023-02-14T05:31:33.284Z,100.00
2023-02-14T05:34:13.186Z,100.00
2023-02-14T05:36:47.068Z,100.00
2023-02-14T05:39:22.915Z,100.00
2023-02-14T05:42:13.609Z,100.00
2023-02-14T05:44:48.831Z,100.00
2023-02-14T05:47:39.634Z,100.00
2023-02-14T05:50:13.290Z,100.00
2023-02-14T05:53:04.782Z,100.00
2023-02-14T05:55:35.516Z,100.00
2023-02-14T05:58:16.049Z,100.00
2023-02-14T06:01:07.021Z,100.00
2023-02-14T06:03:40.584Z,100.00
2023-02-14T06:06:21.346Z,100.00
2023-02-14T06:08:54.954Z,100.00
2023-02-14T06:11:35.889Z,100.00
2023-02-14T06:14:09.493Z,100.00
2023-02-14T06:16:45.225Z,100.00
2023-02-14T06:19:18.207Z,100.00
2023-02-14T06:21:58.789Z,100.00
2023-02-14T06:24:42.138Z,100.00
2023-02-14T06:27:16.083Z,100.00
2023-02-14T06:30:12.168Z,100.00
2023-02-14T06:32:51.596Z,100.00
2023-02-14T06:35:25.146Z,100.00
2023-02-14T06:38:00.765Z,100.00
2023-02-14T06:40:51.399Z,100.00
2023-02-14T06:43:21.949Z,100.00
2023-02-14T06:45:55.816Z,100.00
2023-02-14T06:48:28.916Z,100.00
2023-02-14T06:51:13.560Z,100.00
2023-02-14T06:54:04.413Z,100.00
2023-02-14T06:56:55.168Z,100.00
2023-02-14T06:59:45.946Z,100.00
2023-02-14T07:02:18.782Z,100.00
2023-02-14T07:05:10.167Z,100.00
2023-02-14T07:07:42.737Z,100.00
2023-02-14T07:10:34.059Z,100.00
2023-02-14T07:13:04.717Z,100.00
2023-02-14T07:15:38.125Z,100.00
2023-02-14T07:18:10.626Z,100.00
2023-02-14T07:20:54.995Z,100.00
2023-02-14T07:23:36.020Z,100.00
2023-02-14T07:26:11.376Z,100.00
2023-02-14T07:28:45.241Z,100.00
2023-02-14T07:31:19.856Z,100.00
2023-02-14T07:34:01.355Z,100.00
2023-02-14T07:36:50.609Z,100.00
2023-02-14T07:39:41.396Z,100.00
2023-02-14T07:42:22.205Z,100.00
2023-02-14T07:44:52.825Z,100.00
2023-02-14T07:47:43.768Z,100.00
2023-02-14T07:50:23.076Z,100.00
2023-02-14T07:52:56.037Z,100.00
2023-02-14T07:55:51.676Z,100.00
2023-02-14T07:58:25.174Z,100.00
2023-02-14T08:00:55.891Z,100.00
2023-02-14T08:03:28.718Z,100.00
2023-02-14T08:05:59.288Z,100.00
2023-02-14T08:08:50.601Z,100.00
2023-02-14T08:11:50.019Z,100.00
2023-02-14T08:14:32.689Z,100.00
2023-02-14T08:17:03.484Z,100.00
2023-02-14T08:19:54.155Z,100.00
2023-02-14T08:22:47.579Z,100.00
2023-02-14T08:25:25.362Z,100.00
2023-02-14T08:28:16.878Z,100.00
2023-02-14T08:31:06.368Z,100.00
2023-02-14T08:33:43.530Z,100.00
2023-02-14T08:36:34.961Z,100.00
2023-02-14T08:39:25.988Z,100.00
2023-02-14T08:42:08.123Z,100.00
2023-02-14T08:44:38.669Z,100.00
2023-02-14T08:47:09.592Z,100.00
2023-02-14T08:50:00.426Z,100.00
2023-02-14T08:52:51.059Z,100.00
2023-02-14T08:55:42.207Z,100.00
2023-02-14T08:58:13.154Z,100.00
2023-02-14T09:00:46.128Z,100.00
2023-02-14T09:03:27.710Z,100.00
2023-02-14T09:06:05.779Z,100.00
2023-02-14T09:08:49.256Z,100.00
2023-02-14T09:11:30.914Z,100.00
2023-02-14T09:14:06.567Z,100.00
2023-02-14T09:16:57.333Z,100.00
2023-02-14T09:19:31.178Z,100.00
2023-02-14T09:22:22.626Z,100.00
2023-02-14T09:25:02.738Z,100.00
2023-02-14T09:27:53.589Z,100.00
2023-02-14T09:30:27.583Z,100.00
2023-02-14T09:33:18.570Z,100.00
2023-02-14T09:36:13.583Z,100.00
2023-02-14T09:38:49.117Z,100.00
2023-02-14T09:41:48.208Z,100.00
2023-02-14T09:44:30.641Z,100.00
2023-02-14T09:47:13.171Z,100.00
2023-02-14T09:49:46.847Z,100.00
2023-02-14T09:52:21.100Z,100.00
2023-02-14T09:54:57.724Z,100.00
2023-02-14T09:57:38.711Z,100.00
2023-02-14T10:00:31.195Z,99.98
2023-02-14T10:03:13.628Z,99.96
2023-02-14T10:06:04.264Z,100.00
2023-02-14T10:09:02.054Z,100.00
2023-02-14T10:11:33.243Z,100.00
2023-02-14T10:14:16.374Z,100.00
2023-02-14T10:16:52.000Z,100.00
2023-02-14T10:19:32.848Z,100.00
2023-02-14T10:22:10.939Z,100.00
2023-02-14T10:24:47.338Z,99.83
2023-02-14T10:27:34.455Z,98.85
2023-02-14T10:30:26.176Z,98.79
2023-02-14T10:33:06.413Z,98.79
2023-02-14T10:35:45.863Z,99.12
2023-02-14T10:38:29.142Z,99.29
2023-02-14T10:41:15.185Z,98.98
2023-02-14T10:43:57.141Z,99.15
2023-02-14T10:46:40.856Z,98.73
2023-02-14T10:49:26.518Z,98.53
2023-02-14T10:52:03.010Z,98.50
2023-02-14T10:54:39.842Z,97.89
2023-02-14T10:57:21.792Z,97.65
2023-02-14T10:59:58.711Z,97.58
2023-02-14T11:02:35.970Z,97.98
2023-02-14T11:05:18.774Z,98.01
2023-02-14T11:07:52.732Z,97.90
2023-02-14T11:10:29.703Z,97.56
2023-02-14T11:13:02.926Z,97.85
2023-02-14T11:15:36.952Z,97.34
2023-02-14T11:18:23.036Z,97.37
2023-02-14T11:21:11.304Z,97.70
2023-02-14T11:23:45.097Z,97.95
2023-02-14T11:26:22.563Z,97.56
2023-02-14T11:28:58.259Z,98.54
2023-02-14T11:31:34.315Z,97.32
2023-02-14T11:34:07.948Z,96.84
2023-02-14T11:36:48.507Z,97.02
2023-02-14T11:39:29.982Z,96.77
2023-02-14T11:42:05.742Z,96.98
2023-02-14T11:44:43.997Z,97.10
2023-02-14T11:47:27.246Z,97.00
2023-02-14T11:50:01.115Z,96.48
2023-02-14T11:52:50.826Z,96.04
2023-02-14T11:55:29.247Z,95.90
2023-02-14T11:58:01.664Z,95.90
2023-02-14T12:00:42.477Z,96.26
2023-02-14T12:03:23.699Z,96.15
2023-02-14T12:06:24.118Z,96.15
2023-02-14T12:09:13.580Z,95.82
2023-02-14T12:11:56.783Z,95.60
2023-02-14T12:14:32.100Z,95.45
2023-02-14T12:17:09.993Z,96.01
2023-02-14T12:19:50.141Z,96.01
2023-02-14T12:22:23.559Z,95.39
2023-02-14T12:25:00.188Z,95.66
2023-02-14T12:27:35.615Z,95.83
2023-02-14T12:30:19.988Z,95.07
2023-02-14T12:32:53.459Z,95.01
2023-02-14T12:35:45.488Z,95.51
2023-02-14T12:38:24.380Z,94.99
2023-02-14T12:41:04.745Z,94.88
2023-02-14T12:43:50.789Z,95.35
2023-02-14T12:47:01.194Z,95.22
2023-02-14T12:49:55.002Z,94.82
2023-02-14T12:53:01.730Z,94.66
2023-02-14T12:55:44.117Z,94.68
2023-02-14T12:58:30.044Z,95.17
2023-02-14T13:01:16.326Z,94.63
2023-02-14T13:04:16.842Z,93.90
2023-02-14T13:06:52.465Z,94.53
2023-02-14T13:09:36.073Z,94.41
2023-02-14T13:12:26.506Z,94.79
2023-02-14T13:15:14.086Z,95.08
2023-02-14T13:17:49.361Z,95.47
2023-02-14T13:20:35.439Z,95.51
2023-02-14T13:23:12.889Z,96.12
2023-02-14T13:25:50.062Z,96.58
2023-02-14T13:28:44.298Z,96.27
2023-02-14T13:31:19.257Z,96.70
2023-02-14T13:34:02.110Z,96.32
2023-02-14T13:36:34.309Z,96.52
2023-02-14T13:39:06.929Z,96.78
2023-02-14T13:41:42.033Z,96.86
2023-02-14T13:44:45.395Z,96.49
2023-02-14T13:47:24.355Z,96.71
2023-02-14T13:50:00.839Z,96.80
2023-02-14T13:52:49.532Z,97.46
2023-02-14T13:55:22.647Z,97.95
2023-02-14T13:58:05.675Z,98.26
2023-02-14T14:00:49.834Z,98.56
2023-02-14T14:03:57.445Z,99.22
2023-02-14T14:07:18.612Z,98.94
2023-02-14T14:10:12.962Z,99.12
2023-02-14T14:12:52.208Z,99.42
2023-02-14T14:15:31.653Z,99.47
2023-02-14T14:18:43.816Z,99.46
2023-02-14T14:21:35.804Z,99.49
2023-02-14T14:24:25.165Z,99.64
2023-02-14T14:27:18.495Z,99.63
2023-02-14T14:30:20.634Z,99.45
2023-02-14T14:32:53.835Z,99.58
2023-02-14T14:35:26.562Z,99.31
2023-02-14T14:38:14.004Z,99.56
2023-02-14T14:40:49.528Z,99.32
2023-02-14T14:43:30.154Z,99.23
2023-02-14T14:46:03.437Z,99.60
2023-02-14T14:48:46.941Z,99.67
2023-02-14T14:51:29.410Z,99.85
2023-02-14T14:54:02.324Z,99.75
2023-02-14T14:56:39.935Z,99.70
2023-02-14T14:59:29.310Z,99.97
2023-02-14T15:02:00.400Z,99.97
2023-02-14T15:04:41.159Z,99.96
2023-02-14T15:07:25.975Z,100.00
2023-02-14T15:10:04.464Z,100.00
2023-02-14T15:13:05.678Z,99.98
2023-02-14T15:15:49.251Z,100.00
2023-02-14T15:18:20.604Z,100.00
2023-02-14T15:20:51.468Z,100.00
2023-02-14T15:23:25.456Z,100.00
2023-02-14T15:25:56.034Z,100.00
2023-02-14T15:28:55.075Z,100.00
2023-02-14T15:31:32.785Z,100.00
2023-02-14T15:34:13.641Z,100.00
2023-02-14T15:36:52.042Z,100.00
2023-02-14T15:39:25.237Z,100.00
2023-02-14T15:42:00.932Z,100.00
2023-02-14T15:44:34.365Z,100.00
2023-02-14T15:47:08.432Z,100.00
2023-02-14T15:49:43.293Z,100.00
2023-02-14T15:52:27.691Z,100.00
2023-02-14T15:55:16.064Z,100.00
2023-02-14T15:57:54.756Z,100.00
2023-02-14T16:00:27.866Z,100.00
2023-02-14T16:03:20.513Z,100.00
2023-02-14T16:06:30.462Z,100.00
2023-02-14T16:09:16.750Z,100.00
2023-02-14T16:12:30.978Z,100.00
2023-02-14T16:15:19.166Z,100.00
2023-02-14T16:17:53.732Z,100.00
2023-02-14T16:20:47.005Z,100.00
2023-02-14T16:23:27.302Z,100.00
2023-02-14T16:26:00.924Z,100.00
2023-02-14T16:28:51.630Z,100.00
2023-02-14T16:31:22.665Z,100.00
2023-02-14T16:34:05.643Z,100.00
2023-02-14T16:36:47.223Z,100.00
2023-02-14T16:39:25.320Z,100.00
2023-02-14T16:42:14.659Z,100.00
2023-02-14T16:45:06.198Z,100.00
2023-02-14T16:47:37.650Z,100.00
2023-02-14T16:50:28.151Z,100.00
2023-02-14T16:52:59.291Z,100.00
2023-02-14T16:55:32.817Z,100.00
2023-02-14T16:58:06.989Z,100.00
2023-02-14T17:00:39.478Z,100.00
2023-02-14T17:03:12.002Z,100.00
2023-02-14T17:06:02.993Z,100.00
2023-02-14T17:08:33.877Z,100.00
2023-02-14T17:11:08.320Z,100.00
2023-02-14T17:13:48.242Z,100.00
2023-02-14T17:16:22.093Z,100.00
2023-02-14T17:18:54.547Z,100.00
2023-02-14T17:21:25.980Z,100.00
2023-02-14T17:23:56.770Z,100.00
2023-02-14T17:26:27.566Z,100.00
2023-02-14T17:29:00.758Z,100.00
2023-02-14T17:31:40.928Z,100.00
2023-02-14T17:34:14.537Z,100.00
2023-02-14T17:36:48.200Z,100.00
2023-02-14T17:39:21.591Z,100.00
2023-02-14T17:41:56.760Z,100.00
2023-02-14T17:44:38.829Z,100.00
2023-02-14T17:47:19.955Z,100.00
2023-02-14T17:49:57.262Z,100.00
2023-02-14T17:52:48.267Z,100.00
2023-02-14T17:55:22.965Z,100.00
2023-02-14T17:58:13.814Z,100.00
2023-02-14T18:00:55.768Z,100.00
2023-02-14T18:03:35.522Z,100.00
2023-02-14T18:06:08.064Z,100.00
2023-02-14T18:08:53.067Z,100.00
2023-02-14T18:11:43.257Z,100.00
2023-02-14T18:14:22.113Z,100.00
2023-02-14T18:17:20.545Z,100.00
2023-02-14T18:20:19.378Z,100.00
2023-02-14T18:23:09.868Z,100.00
2023-02-14T18:26:05.786Z,100.00
2023-02-14T18:28:43.119Z,100.00
2023-02-14T18:31:41.734Z,100.00
2023-02-14T18:34:20.494Z,100.00
2023-02-14T18:36:56.949Z,100.00
2023-02-14T18:39:27.966Z,100.00
2023-02-14T18:42:00.132Z,100.00
2023-02-14T18:44:31.130Z,100.00
2023-02-14T18:47:07.464Z,100.00
2023-02-14T18:49:38.211Z,100.00
2023-02-14T18:52:09.109Z,100.00
2023-02-14T18:54:39.916Z,100.00
2023-02-14T18:57:13.856Z,100.00
2023-02-14T18:59:45.108Z,100.00
2023-02-14T19:02:19.014Z,100.00
2023-02-14T19:04:50.612Z,100.00
2023-02-14T19:07:21.290Z,100.00
2023-02-14T19:09:52.679Z,100.00
2023-02-14T19:12:24.304Z,100.00
2023-02-14T19:14:56.863Z,100.00
2023-02-14T19:17:27.705Z,100.00
2023-02-14T19:19:58.352Z,100.00
2023-02-14T19:22:31.343Z,100.00
2023-02-14T19:25:01.935Z,100.00
2023-02-14T19:27:32.974Z,100.00
2023-02-14T19:30:05.089Z,100.00
2023-02-14T19:32:35.824Z,100.00
2023-02-14T19:35:07.232Z,100.00
2023-02-14T19:37:38.067Z,100.00
2023-02-14T19:40:10.840Z,100.00
2023-02-14T19:42:43.952Z,100.00
2023-02-14T19:45:17.116Z,100.00
2023-02-14T19:47:47.789Z,100.00
2023-02-14T19:50:21.918Z,100.00
2023-02-14T19:52:53.012Z,100.00
2023-02-14T19:55:25.947Z,100.00
2023-02-14T19:57:59.949Z,100.00
2023-02-14T20:00:33.600Z,100.00
2023-02-14T20:03:07.209Z,100.00
2023-02-14T20:05:41.530Z,100.00
2023-02-14T20:08:12.304Z,100.00
2023-02-14T20:10:42.974Z,100.00
2023-02-14T20:13:16.826Z,100.00
2023-02-14T20:15:50.795Z,100.00
2023-02-14T20:18:26.436Z,100.00
2023-02-14T20:21:07.579Z,100.00
2023-02-14T20:23:39.109Z,100.00
2023-02-14T20:26:14.537Z,100.00
2023-02-14T20:28:45.305Z,100.00
2023-02-14T20:31:20.186Z,100.00
2023-02-14T20:33:52.845Z,100.00
2023-02-14T20:36:23.540Z,100.00
2023-02-14T20:39:07.098Z,100.00
2023-02-14T20:41:38.015Z,100.00
2023-02-14T20:44:11.353Z,100.00
2023-02-14T20:46:45.191Z,100.00
2023-02-14T20:49:17.037Z,100.00
2023-02-14T20:51:49.626Z,100.00
2023-02-14T20:54:21.439Z,100.00
2023-02-14T20:56:55.612Z,100.00
2023-02-14T20:59:27.293Z,100.00
2023-02-14T21:02:10.617Z,100.00
2023-02-14T21:04:51.117Z,100.00
2023-02-14T21:07:24.444Z,100.00
2023-02-14T21:09:57.361Z,100.00
2023-02-14T21:12:48.781Z,100.00
2023-02-14T21:15:19.532Z,100.00
2023-02-14T21:17:50.370Z,100.00
2023-02-14T21:20:23.544Z,100.00
2023-02-14T21:22:56.929Z,100.00
2023-02-14T21:25:27.786Z,100.00
2023-02-14T21:27:58.585Z,100.00
2023-02-14T21:30:32.443Z,100.00
2023-02-14T21:33:03.900Z,100.00
2023-02-14T21:35:36.330Z,100.00
2023-02-14T21:38:06.994Z,100.00
2023-02-14T21:40:38.606Z,100.00
2023-02-14T21:43:07.776Z,100.00
2023-02-14T21:45:57.811Z,100.00
2023-02-14T21:48:45.868Z,100.00
2023-02-14T21:51:16.554Z,100.00
2023-02-14T21:53:48.139Z,100.00
2023-02-14T21:56:20.929Z,100.00
2023-02-14T21:58:53.076Z,100.00
2023-02-14T22:01:26.621Z,100.00
2023-02-14T22:03:58.714Z,100.00
2023-02-14T22:06:30.201Z,100.00
2023-02-14T22:09:00.707Z,100.00
2023-02-14T22:11:32.001Z,100.00
2023-02-14T22:14:03.227Z,100.00
2023-02-14T22:16:36.595Z,100.00
2023-02-14T22:19:08.733Z,100.00
2023-02-14T22:21:39.190Z,100.00
2023-02-14T22:24:10.163Z,100.00
2023-02-14T22:26:43.843Z,100.00
2023-02-14T22:29:16.881Z,100.00
2023-02-14T22:31:47.559Z,100.00
2023-02-14T22:34:19.449Z,100.00
2023-02-14T22:36:51.185Z,100.00
2023-02-14T22:39:24.185Z,100.00
2023-02-14T22:41:54.806Z,100.00
2023-02-14T22:44:28.450Z,100.00
2023-02-14T22:46:59.185Z,100.00
2023-02-14T22:49:32.756Z,100.00
2023-02-14T22:52:05.706Z,100.00
2023-02-14T22:54:36.187Z,100.00
2023-02-14T22:57:09.158Z,100.00
2023-02-14T22:59:42.126Z,100.00
2023-02-14T23:02:14.618Z,100.00
2023-02-14T23:04:45.188Z,100.00
2023-02-14T23:07:15.625Z,100.00
2023-02-14T23:09:58.727Z,100.00
2023-02-14T23:12:47.371Z,100.00
2023-02-14T23:15:55.875Z,100.00
2023-02-14T23:18:44.370Z,100.00
2023-02-14T23:21:34.080Z,100.00
2023-02-14T23:24:07.673Z,100.00
2023-02-14T23:26:38.382Z,100.00
2023-02-14T23:29:08.900Z,100.00
2023-02-14T23:31:39.598Z,100.00
2023-02-14T23:34:10.341Z,100.00
2023-02-14T23:36:40.959Z,100.00
2023-02-14T23:39:11.745Z,100.00
2023-02-14T23:41:48.263Z,100.00
2023-02-14T23:44:20.737Z,100.00
2023-02-14T23:46:52.902Z,100.00
2023-02-14T23:49:24.903Z,100.00
2023-02-14T23:51:57.791Z,100.00
2023-02-14T23:54:28.934Z,100.00
2023-02-14T23:56:59.546Z,100.00
2023-02-14T23:59:33.053Z,100.00
